sensor_id;sensor_type;location;lat;lon;timestamp;temperature;humidity
3752;DHT22;50827;47.014;7.652;2023-08-31T00:01:04;15.30;99.90
3752;DHT22;50827;47.014;7.652;2023-08-31T00:03:31;15.30;99.90
3752;DHT22;50827;47.014;7.652;2023-08-31T00:06:02;15.30;99.90
3752;DHT22;50827;47.014;7.652;2023-08-31T00:08:30;15.30;99.90
3752;DHT22;50827;47.014;7.652;2023-08-31T00:10:58;15.20;99.90
3752;DHT22;50827;47.014;7.652;2023-08-31T00:13:27;15.20;99.90
3752;DHT22;50827;47.014;7.652;2023-08-31T00:15:56;15.20;99.90
3752;DHT22;50827;47.014;7.652;2023-08-31T00:18:27;15.20;99.90
3752;DHT22;50827;47.014;7.652;2023-08-31T00:20:53;15.10;99.90
3752;DHT22;50827;47.014;7.652;2023-08-31T00:23:20;15.10;99.90
3752;DHT22;50827;47.014;7.652;2023-08-31T00:25:47;15.10;99.90
3752;DHT22;50827;47.014;7.652;2023-08-31T00:28:17;15.00;99.90
3752;DHT22;50827;47.014;7.652;2023-08-31T00:30:45;14.90;99.90
3752;DHT22;50827;47.014;7.652;2023-08-31T00:33:12;14.90;99.90
3752;DHT22;50827;47.014;7.652;2023-08-31T00:35:40;15.00;99.90
3752;DHT22;50827;47.014;7.652;2023-08-31T00:38:13;15.00;99.90
3752;DHT22;50827;47.014;7.652;2023-08-31T00:40:42;15.10;99.90
3752;DHT22;50827;47.014;7.652;2023-08-31T00:43:12;15.10;99.90
3752;DHT22;50827;47.014;7.652;2023-08-31T00:45:42;15.10;99.90
3752;DHT22;50827;47.014;7.652;2023-08-31T00:48:09;15.10;99.90
3752;DHT22;50827;47.014;7.652;2023-08-31T00:50:37;15.10;99.90
3752;DHT22;50827;47.014;7.652;2023-08-31T00:53:04;15.10;99.90
3752;DHT22;50827;47.014;7.652;2023-08-31T00:55:31;15.10;99.90
3752;DHT22;50827;47.014;7.652;2023-08-31T00:57:59;15.20;99.90
3752;DHT22;50827;47.014;7.652;2023-08-31T01:07:04;15.20;99.90
3752;DHT22;50827;47.014;7.652;2023-08-31T01:12:35;15.20;99.90
3752;DHT22;50827;47.014;7.652;2023-08-31T01:15:04;15.20;99.90
3752;DHT22;50827;47.014;7.652;2023-08-31T01:17:50;15.20;99.90
3752;DHT22;50827;47.014;7.652;2023-08-31T01:20:34;15.20;99.90
3752;DHT22;50827;47.014;7.652;2023-08-31T01:23:07;15.20;99.90
3752;DHT22;50827;47.014;7.652;2023-08-31T01:25:37;15.20;99.90
3752;DHT22;50827;47.014;7.652;2023-08-31T01:28:05;15.20;99.90
3752;DHT22;50827;47.014;7.652;2023-08-31T01:30:32;15.30;99.90
3752;DHT22;50827;47.014;7.652;2023-08-31T01:32:59;15.20;99.90
3752;DHT22;50827;47.014;7.652;2023-08-31T01:35:29;15.20;99.90
3752;DHT22;50827;47.014;7.652;2023-08-31T01:37:59;15.30;99.90
3752;DHT22;50827;47.014;7.652;2023-08-31T01:40:35;15.30;99.90
3752;DHT22;50827;47.014;7.652;2023-08-31T01:43:04;15.20;99.90
3752;DHT22;50827;47.014;7.652;2023-08-31T01:45:33;15.10;99.90
3752;DHT22;50827;47.014;7.652;2023-08-31T01:48:01;15.00;99.90
3752;DHT22;50827;47.014;7.652;2023-08-31T01:50:28;15.10;99.90
3752;DHT22;50827;47.014;7.652;2023-08-31T01:52:54;15.00;99.90
3752;DHT22;50827;47.014;7.652;2023-08-31T01:55:23;15.00;99.90
3752;DHT22;50827;47.014;7.652;2023-08-31T01:57:50;15.00;99.90
3752;DHT22;50827;47.014;7.652;2023-08-31T02:00:17;15.00;99.90
3752;DHT22;50827;47.014;7.652;2023-08-31T02:02:44;15.00;99.90
3752;DHT22;50827;47.014;7.652;2023-08-31T02:05:11;15.00;99.90
3752;DHT22;50827;47.014;7.652;2023-08-31T02:07:38;15.00;99.90
3752;DHT22;50827;47.014;7.652;2023-08-31T02:10:06;15.00;99.90
3752;DHT22;50827;47.014;7.652;2023-08-31T02:12:33;15.00;99.90
3752;DHT22;50827;47.014;7.652;2023-08-31T02:15:05;15.00;99.90
3752;DHT22;50827;47.014;7.652;2023-08-31T02:17:34;15.00;99.90
3752;DHT22;50827;47.014;7.652;2023-08-31T02:20:01;14.90;99.90
3752;DHT22;50827;47.014;7.652;2023-08-31T02:22:34;15.00;99.90
3752;DHT22;50827;47.014;7.652;2023-08-31T02:25:02;15.00;99.90
3752;DHT22;50827;47.014;7.652;2023-08-31T02:27:29;15.00;99.90
3752;DHT22;50827;47.014;7.652;2023-08-31T02:29:55;15.00;99.90
3752;DHT22;50827;47.014;7.652;2023-08-31T02:32:22;15.10;99.90
3752;DHT22;50827;47.014;7.652;2023-08-31T02:34:49;15.10;99.90
3752;DHT22;50827;47.014;7.652;2023-08-31T02:37:16;15.00;99.90
3752;DHT22;50827;47.014;7.652;2023-08-31T02:39:43;15.10;99.90
3752;DHT22;50827;47.014;7.652;2023-08-31T02:42:10;15.10;99.90
3752;DHT22;50827;47.014;7.652;2023-08-31T02:44:36;15.10;99.90
3752;DHT22;50827;47.014;7.652;2023-08-31T02:47:03;15.10;99.90
3752;DHT22;50827;47.014;7.652;2023-08-31T02:49:30;15.10;99.90
3752;DHT22;50827;47.014;7.652;2023-08-31T02:51:57;15.10;99.90
3752;DHT22;50827;47.014;7.652;2023-08-31T02:54:23;15.10;99.90
3752;DHT22;50827;47.014;7.652;2023-08-31T02:56:50;15.10;99.90
3752;DHT22;50827;47.014;7.652;2023-08-31T02:59:17;15.00;99.90
3752;DHT22;50827;47.014;7.652;2023-08-31T03:01:44;15.00;99.90
3752;DHT22;50827;47.014;7.652;2023-08-31T03:04:13;14.90;99.90
3752;DHT22;50827;47.014;7.652;2023-08-31T03:06:39;14.90;99.90
3752;DHT22;50827;47.014;7.652;2023-08-31T03:09:06;14.90;99.90
3752;DHT22;50827;47.014;7.652;2023-08-31T03:11:33;15.00;99.90
3752;DHT22;50827;47.014;7.652;2023-08-31T03:14:00;15.00;99.90
3752;DHT22;50827;47.014;7.652;2023-08-31T03:16:26;14.90;99.90
3752;DHT22;50827;47.014;7.652;2023-08-31T03:18:53;14.90;99.90
3752;DHT22;50827;47.014;7.652;2023-08-31T03:21:20;14.90;99.90
3752;DHT22;50827;47.014;7.652;2023-08-31T03:23:46;14.90;99.90
3752;DHT22;50827;47.014;7.652;2023-08-31T03:26:13;14.90;99.90
3752;DHT22;50827;47.014;7.652;2023-08-31T03:28:40;14.90;99.90
3752;DHT22;50827;47.014;7.652;2023-08-31T03:31:07;15.00;99.90
3752;DHT22;50827;47.014;7.652;2023-08-31T03:33:34;14.90;99.90
3752;DHT22;50827;47.014;7.652;2023-08-31T03:36:02;14.90;99.90
3752;DHT22;50827;47.014;7.652;2023-08-31T03:38:31;14.90;99.90
3752;DHT22;50827;47.014;7.652;2023-08-31T03:40:58;14.90;99.90
3752;DHT22;50827;47.014;7.652;2023-08-31T03:43:25;14.90;99.90
3752;DHT22;50827;47.014;7.652;2023-08-31T03:45:56;14.90;99.90
3752;DHT22;50827;47.014;7.652;2023-08-31T03:48:24;15.00;99.90
3752;DHT22;50827;47.014;7.652;2023-08-31T03:50:51;15.00;99.90
3752;DHT22;50827;47.014;7.652;2023-08-31T03:53:18;15.00;99.90
3752;DHT22;50827;47.014;7.652;2023-08-31T03:55:45;15.00;99.90
3752;DHT22;50827;47.014;7.652;2023-08-31T03:58:12;15.00;99.90
3752;DHT22;50827;47.014;7.652;2023-08-31T04:00:39;15.00;99.90
3752;DHT22;50827;47.014;7.652;2023-08-31T04:03:06;15.00;99.90
3752;DHT22;50827;47.014;7.652;2023-08-31T04:05:34;15.00;99.90
3752;DHT22;50827;47.014;7.652;2023-08-31T04:08:01;15.00;99.90
3752;DHT22;50827;47.014;7.652;2023-08-31T04:10:27;15.10;99.90
3752;DHT22;50827;47.014;7.652;2023-08-31T04:12:56;15.00;99.90
3752;DHT22;50827;47.014;7.652;2023-08-31T04:15:22;15.00;99.90
3752;DHT22;50827;47.014;7.652;2023-08-31T04:17:49;15.00;99.90
3752;DHT22;50827;47.014;7.652;2023-08-31T04:20:17;15.00;99.90
3752;DHT22;50827;47.014;7.652;2023-08-31T04:22:44;15.00;99.90
3752;DHT22;50827;47.014;7.652;2023-08-31T04:25:10;14.90;99.90
3752;DHT22;50827;47.014;7.652;2023-08-31T04:27:37;14.90;99.90
3752;DHT22;50827;47.014;7.652;2023-08-31T04:30:06;14.90;99.90
3752;DHT22;50827;47.014;7.652;2023-08-31T04:32:34;14.90;99.90
3752;DHT22;50827;47.014;7.652;2023-08-31T04:35:03;15.00;99.90
3752;DHT22;50827;47.014;7.652;2023-08-31T04:37:32;15.00;99.90
3752;DHT22;50827;47.014;7.652;2023-08-31T04:39:59;15.00;99.90
3752;DHT22;50827;47.014;7.652;2023-08-31T04:42:26;15.00;99.90
3752;DHT22;50827;47.014;7.652;2023-08-31T04:44:53;15.00;99.90
3752;DHT22;50827;47.014;7.652;2023-08-31T04:47:19;15.00;99.90
3752;DHT22;50827;47.014;7.652;2023-08-31T04:49:46;15.00;99.90
3752;DHT22;50827;47.014;7.652;2023-08-31T04:52:13;15.00;99.90
3752;DHT22;50827;47.014;7.652;2023-08-31T04:54:39;15.00;99.90
3752;DHT22;50827;47.014;7.652;2023-08-31T04:57:06;15.00;99.90
3752;DHT22;50827;47.014;7.652;2023-08-31T04:59:34;15.00;99.90
3752;DHT22;50827;47.014;7.652;2023-08-31T05:02:00;14.90;99.90
3752;DHT22;50827;47.014;7.652;2023-08-31T05:04:27;14.90;99.90
3752;DHT22;50827;47.014;7.652;2023-08-31T05:06:55;14.90;99.90
3752;DHT22;50827;47.014;7.652;2023-08-31T05:09:24;14.80;99.90
3752;DHT22;50827;47.014;7.652;2023-08-31T05:11:51;14.80;99.90
3752;DHT22;50827;47.014;7.652;2023-08-31T05:14:17;14.80;99.90
3752;DHT22;50827;47.014;7.652;2023-08-31T05:16:44;14.80;99.90
3752;DHT22;50827;47.014;7.652;2023-08-31T05:19:11;14.90;99.90
3752;DHT22;50827;47.014;7.652;2023-08-31T05:21:38;14.80;99.90
3752;DHT22;50827;47.014;7.652;2023-08-31T05:24:05;14.80;99.90
3752;DHT22;50827;47.014;7.652;2023-08-31T05:26:32;14.80;99.90
3752;DHT22;50827;47.014;7.652;2023-08-31T05:28:58;14.90;99.90
3752;DHT22;50827;47.014;7.652;2023-08-31T05:31:25;14.80;99.90
3752;DHT22;50827;47.014;7.652;2023-08-31T05:33:52;14.80;99.90
3752;DHT22;50827;47.014;7.652;2023-08-31T05:36:19;14.80;99.90
3752;DHT22;50827;47.014;7.652;2023-08-31T05:38:45;14.90;99.90
3752;DHT22;50827;47.014;7.652;2023-08-31T05:41:12;14.90;99.90
3752;DHT22;50827;47.014;7.652;2023-08-31T05:43:39;14.90;99.90
3752;DHT22;50827;47.014;7.652;2023-08-31T05:46:07;14.90;99.90
3752;DHT22;50827;47.014;7.652;2023-08-31T05:48:35;14.90;99.90
3752;DHT22;50827;47.014;7.652;2023-08-31T05:51:03;14.90;99.90
3752;DHT22;50827;47.014;7.652;2023-08-31T05:53:30;14.90;99.90
3752;DHT22;50827;47.014;7.652;2023-08-31T05:55:58;15.00;99.90
3752;DHT22;50827;47.014;7.652;2023-08-31T05:58:35;15.00;99.90
3752;DHT22;50827;47.014;7.652;2023-08-31T06:01:03;15.00;99.90
3752;DHT22;50827;47.014;7.652;2023-08-31T06:03:30;15.00;99.90
3752;DHT22;50827;47.014;7.652;2023-08-31T06:05:58;15.00;99.90
3752;DHT22;50827;47.014;7.652;2023-08-31T06:08:25;15.00;99.90
3752;DHT22;50827;47.014;7.652;2023-08-31T06:10:52;15.00;99.90
3752;DHT22;50827;47.014;7.652;2023-08-31T06:13:19;15.00;99.90
3752;DHT22;50827;47.014;7.652;2023-08-31T06:15:45;14.90;99.90
3752;DHT22;50827;47.014;7.652;2023-08-31T06:18:14;15.00;99.90
3752;DHT22;50827;47.014;7.652;2023-08-31T06:20:40;15.00;99.90
3752;DHT22;50827;47.014;7.652;2023-08-31T06:23:08;15.00;99.90
3752;DHT22;50827;47.014;7.652;2023-08-31T06:25:36;15.00;99.90
3752;DHT22;50827;47.014;7.652;2023-08-31T06:28:02;15.00;99.90
3752;DHT22;50827;47.014;7.652;2023-08-31T06:30:31;15.10;99.90
3752;DHT22;50827;47.014;7.652;2023-08-31T06:32:58;15.10;99.90
3752;DHT22;50827;47.014;7.652;2023-08-31T06:35:25;15.10;99.90
3752;DHT22;50827;47.014;7.652;2023-08-31T06:37:52;15.20;99.90
3752;DHT22;50827;47.014;7.652;2023-08-31T06:40:18;15.20;99.90
3752;DHT22;50827;47.014;7.652;2023-08-31T06:42:45;15.20;99.90
3752;DHT22;50827;47.014;7.652;2023-08-31T06:45:12;15.20;99.90
3752;DHT22;50827;47.014;7.652;2023-08-31T06:47:39;15.30;99.90
3752;DHT22;50827;47.014;7.652;2023-08-31T06:50:05;15.30;99.90
3752;DHT22;50827;47.014;7.652;2023-08-31T06:52:33;15.30;99.90
3752;DHT22;50827;47.014;7.652;2023-08-31T06:55:03;15.30;99.90
3752;DHT22;50827;47.014;7.652;2023-08-31T06:57:29;15.30;99.90
3752;DHT22;50827;47.014;7.652;2023-08-31T06:59:56;15.30;99.90
3752;DHT22;50827;47.014;7.652;2023-08-31T07:02:26;15.30;99.90
3752;DHT22;50827;47.014;7.652;2023-08-31T07:04:53;15.30;99.90
3752;DHT22;50827;47.014;7.652;2023-08-31T07:07:19;15.30;99.90
3752;DHT22;50827;47.014;7.652;2023-08-31T07:09:47;15.40;99.90
3752;DHT22;50827;47.014;7.652;2023-08-31T07:12:15;15.40;99.90
3752;DHT22;50827;47.014;7.652;2023-08-31T07:14:42;15.40;99.90
3752;DHT22;50827;47.014;7.652;2023-08-31T07:17:08;15.40;99.90
3752;DHT22;50827;47.014;7.652;2023-08-31T07:19:36;15.50;99.90
3752;DHT22;50827;47.014;7.652;2023-08-31T07:22:04;15.50;99.90
3752;DHT22;50827;47.014;7.652;2023-08-31T07:24:33;15.50;99.90
3752;DHT22;50827;47.014;7.652;2023-08-31T07:27:02;15.50;99.90
3752;DHT22;50827;47.014;7.652;2023-08-31T07:29:29;15.50;99.90
3752;DHT22;50827;47.014;7.652;2023-08-31T07:31:56;15.50;99.90
3752;DHT22;50827;47.014;7.652;2023-08-31T07:34:23;15.60;99.90
3752;DHT22;50827;47.014;7.652;2023-08-31T07:36:50;15.60;99.90
3752;DHT22;50827;47.014;7.652;2023-08-31T07:39:17;15.70;99.90
3752;DHT22;50827;47.014;7.652;2023-08-31T07:41:47;15.70;99.90
3752;DHT22;50827;47.014;7.652;2023-08-31T07:44:16;15.90;99.90
3752;DHT22;50827;47.014;7.652;2023-08-31T07:46:43;15.90;99.90
3752;DHT22;50827;47.014;7.652;2023-08-31T07:49:10;15.90;99.90
3752;DHT22;50827;47.014;7.652;2023-08-31T07:51:36;15.90;99.90
3752;DHT22;50827;47.014;7.652;2023-08-31T07:54:03;16.00;99.90
3752;DHT22;50827;47.014;7.652;2023-08-31T07:56:30;16.00;99.90
3752;DHT22;50827;47.014;7.652;2023-08-31T07:58:57;16.00;99.90
3752;DHT22;50827;47.014;7.652;2023-08-31T08:01:25;16.10;99.90
3752;DHT22;50827;47.014;7.652;2023-08-31T08:03:51;16.20;99.90
3752;DHT22;50827;47.014;7.652;2023-08-31T08:06:18;16.30;99.90
3752;DHT22;50827;47.014;7.652;2023-08-31T08:08:45;16.30;99.90
3752;DHT22;50827;47.014;7.652;2023-08-31T08:11:12;16.40;99.90
3752;DHT22;50827;47.014;7.652;2023-08-31T08:13:39;16.40;99.90
3752;DHT22;50827;47.014;7.652;2023-08-31T08:16:05;16.40;99.90
3752;DHT22;50827;47.014;7.652;2023-08-31T08:18:32;16.50;99.90
3752;DHT22;50827;47.014;7.652;2023-08-31T08:20:59;16.60;99.90
3752;DHT22;50827;47.014;7.652;2023-08-31T08:23:26;16.70;99.90
3752;DHT22;50827;47.014;7.652;2023-08-31T08:25:53;16.80;99.90
3752;DHT22;50827;47.014;7.652;2023-08-31T08:28:19;16.80;99.90
3752;DHT22;50827;47.014;7.652;2023-08-31T08:30:46;16.90;99.90
3752;DHT22;50827;47.014;7.652;2023-08-31T08:33:13;17.00;99.90
3752;DHT22;50827;47.014;7.652;2023-08-31T08:35:40;17.00;99.90
3752;DHT22;50827;47.014;7.652;2023-08-31T08:38:07;17.10;99.90
3752;DHT22;50827;47.014;7.652;2023-08-31T08:40:34;17.10;99.90
3752;DHT22;50827;47.014;7.652;2023-08-31T08:43:01;17.20;99.90
3752;DHT22;50827;47.014;7.652;2023-08-31T08:45:38;17.20;99.90
3752;DHT22;50827;47.014;7.652;2023-08-31T08:48:08;17.30;99.90
3752;DHT22;50827;47.014;7.652;2023-08-31T08:50:36;17.30;99.90
3752;DHT22;50827;47.014;7.652;2023-08-31T08:53:04;17.40;99.90
3752;DHT22;50827;47.014;7.652;2023-08-31T08:55:32;17.50;99.90
3752;DHT22;50827;47.014;7.652;2023-08-31T08:58:00;17.50;99.90
3752;DHT22;50827;47.014;7.652;2023-08-31T09:00:27;17.50;99.90
3752;DHT22;50827;47.014;7.652;2023-08-31T09:02:55;17.50;99.90
3752;DHT22;50827;47.014;7.652;2023-08-31T09:05:22;17.60;99.90
3752;DHT22;50827;47.014;7.652;2023-08-31T09:08:09;17.50;99.90
3752;DHT22;50827;47.014;7.652;2023-08-31T09:10:42;17.50;99.90
3752;DHT22;50827;47.014;7.652;2023-08-31T09:13:14;17.50;99.90
3752;DHT22;50827;47.014;7.652;2023-08-31T09:15:47;17.50;99.90
3752;DHT22;50827;47.014;7.652;2023-08-31T09:18:31;17.50;99.90
3752;DHT22;50827;47.014;7.652;2023-08-31T09:21:00;17.50;99.90
3752;DHT22;50827;47.014;7.652;2023-08-31T09:23:27;17.60;99.90
3752;DHT22;50827;47.014;7.652;2023-08-31T09:25:55;17.60;99.90
3752;DHT22;50827;47.014;7.652;2023-08-31T09:28:24;17.50;99.90
3752;DHT22;50827;47.014;7.652;2023-08-31T09:31:05;17.60;99.90
3752;DHT22;50827;47.014;7.652;2023-08-31T09:33:34;17.60;99.90
3752;DHT22;50827;47.014;7.652;2023-08-31T09:36:01;17.70;99.90
3752;DHT22;50827;47.014;7.652;2023-08-31T09:38:30;17.70;99.90
3752;DHT22;50827;47.014;7.652;2023-08-31T09:41:06;17.70;99.90
3752;DHT22;50827;47.014;7.652;2023-08-31T09:43:33;17.60;99.90
3752;DHT22;50827;47.014;7.652;2023-08-31T09:46:00;17.70;99.90
3752;DHT22;50827;47.014;7.652;2023-08-31T09:48:29;17.70;99.90
3752;DHT22;50827;47.014;7.652;2023-08-31T09:50:57;17.70;99.90
3752;DHT22;50827;47.014;7.652;2023-08-31T09:53:24;17.80;99.90
3752;DHT22;50827;47.014;7.652;2023-08-31T09:55:56;17.80;99.90
3752;DHT22;50827;47.014;7.652;2023-08-31T09:58:23;17.90;99.90
3752;DHT22;50827;47.014;7.652;2023-08-31T10:00:52;18.00;99.90
3752;DHT22;50827;47.014;7.652;2023-08-31T10:03:20;18.10;99.90
3752;DHT22;50827;47.014;7.652;2023-08-31T10:05:49;18.10;99.90
3752;DHT22;50827;47.014;7.652;2023-08-31T10:08:17;18.20;99.90
3752;DHT22;50827;47.014;7.652;2023-08-31T10:10:46;18.20;99.90
3752;DHT22;50827;47.014;7.652;2023-08-31T10:13:14;18.20;99.90
3752;DHT22;50827;47.014;7.652;2023-08-31T10:15:43;18.40;99.90
3752;DHT22;50827;47.014;7.652;2023-08-31T10:18:10;18.40;99.90
3752;DHT22;50827;47.014;7.652;2023-08-31T10:20:37;18.50;99.90
3752;DHT22;50827;47.014;7.652;2023-08-31T10:23:08;18.50;99.90
3752;DHT22;50827;47.014;7.652;2023-08-31T10:28:21;18.70;99.90
3752;DHT22;50827;47.014;7.652;2023-08-31T10:31:06;18.70;99.90
3752;DHT22;50827;47.014;7.652;2023-08-31T10:33:55;18.80;99.90
3752;DHT22;50827;47.014;7.652;2023-08-31T10:36:22;18.90;99.90
3752;DHT22;50827;47.014;7.652;2023-08-31T10:41:24;19.00;99.90
3752;DHT22;50827;47.014;7.652;2023-08-31T10:43:56;19.10;99.90
3752;DHT22;50827;47.014;7.652;2023-08-31T10:46:33;19.10;99.90
3752;DHT22;50827;47.014;7.652;2023-08-31T10:49:12;19.20;99.90
3752;DHT22;50827;47.014;7.652;2023-08-31T10:51:42;19.40;99.90
3752;DHT22;50827;47.014;7.652;2023-08-31T10:57:01;19.40;99.90
3752;DHT22;50827;47.014;7.652;2023-08-31T11:02:35;19.30;99.90
3752;DHT22;50827;47.014;7.652;2023-08-31T11:07:33;19.50;99.90
3752;DHT22;50827;47.014;7.652;2023-08-31T11:10:08;19.50;99.90
3752;DHT22;50827;47.014;7.652;2023-08-31T11:12:37;19.60;99.90
3752;DHT22;50827;47.014;7.652;2023-08-31T11:15:04;19.60;99.90
3752;DHT22;50827;47.014;7.652;2023-08-31T11:17:31;19.60;99.90
3752;DHT22;50827;47.014;7.652;2023-08-31T11:20:01;19.60;99.90
3752;DHT22;50827;47.014;7.652;2023-08-31T11:22:32;19.70;99.90
3752;DHT22;50827;47.014;7.652;2023-08-31T11:25:01;19.60;99.90
3752;DHT22;50827;47.014;7.652;2023-08-31T11:27:29;19.60;99.90
3752;DHT22;50827;47.014;7.652;2023-08-31T11:29:56;19.70;99.90
3752;DHT22;50827;47.014;7.652;2023-08-31T11:32:25;19.70;99.90
3752;DHT22;50827;47.014;7.652;2023-08-31T11:34:52;19.70;99.90
3752;DHT22;50827;47.014;7.652;2023-08-31T11:37:19;19.70;99.90
3752;DHT22;50827;47.014;7.652;2023-08-31T11:39:53;19.70;99.90
3752;DHT22;50827;47.014;7.652;2023-08-31T11:42:21;19.70;99.90
3752;DHT22;50827;47.014;7.652;2023-08-31T11:44:50;19.70;99.90
3752;DHT22;50827;47.014;7.652;2023-08-31T11:47:20;19.80;99.90
3752;DHT22;50827;47.014;7.652;2023-08-31T11:49:47;19.90;99.90
3752;DHT22;50827;47.014;7.652;2023-08-31T11:52:15;20.00;99.90
3752;DHT22;50827;47.014;7.652;2023-08-31T11:54:43;20.00;99.90
3752;DHT22;50827;47.014;7.652;2023-08-31T11:57:10;20.00;99.90
3752;DHT22;50827;47.014;7.652;2023-08-31T11:59:38;20.00;99.90
3752;DHT22;50827;47.014;7.652;2023-08-31T12:02:06;20.10;99.90
3752;DHT22;50827;47.014;7.652;2023-08-31T12:04:43;20.00;99.90
3752;DHT22;50827;47.014;7.652;2023-08-31T12:07:17;20.00;99.90
3752;DHT22;50827;47.014;7.652;2023-08-31T12:09:45;20.00;99.90
3752;DHT22;50827;47.014;7.652;2023-08-31T12:12:19;20.10;99.90
3752;DHT22;50827;47.014;7.652;2023-08-31T12:14:46;20.20;99.90
3752;DHT22;50827;47.014;7.652;2023-08-31T12:17:13;20.30;99.90
3752;DHT22;50827;47.014;7.652;2023-08-31T12:19:45;20.30;99.90
3752;DHT22;50827;47.014;7.652;2023-08-31T12:22:11;20.40;99.90
3752;DHT22;50827;47.014;7.652;2023-08-31T12:24:41;20.40;99.90
3752;DHT22;50827;47.014;7.652;2023-08-31T12:27:09;20.50;99.90
3752;DHT22;50827;47.014;7.652;2023-08-31T12:29:36;20.60;99.90
3752;DHT22;50827;47.014;7.652;2023-08-31T12:32:03;20.70;99.90
3752;DHT22;50827;47.014;7.652;2023-08-31T12:34:30;20.70;99.90
3752;DHT22;50827;47.014;7.652;2023-08-31T12:37:02;20.80;99.90
3752;DHT22;50827;47.014;7.652;2023-08-31T12:39:33;20.70;99.90
3752;DHT22;50827;47.014;7.652;2023-08-31T12:42:00;20.70;99.90
3752;DHT22;50827;47.014;7.652;2023-08-31T12:44:42;20.80;99.90
3752;DHT22;50827;47.014;7.652;2023-08-31T12:47:09;20.80;99.90
3752;DHT22;50827;47.014;7.652;2023-08-31T12:49:36;20.90;99.90
3752;DHT22;50827;47.014;7.652;2023-08-31T12:52:05;20.80;99.90
3752;DHT22;50827;47.014;7.652;2023-08-31T12:54:32;20.80;99.90
3752;DHT22;50827;47.014;7.652;2023-08-31T12:56:59;20.80;99.90
3752;DHT22;50827;47.014;7.652;2023-08-31T12:59:25;20.80;99.90
3752;DHT22;50827;47.014;7.652;2023-08-31T13:01:52;20.80;99.90
3752;DHT22;50827;47.014;7.652;2023-08-31T13:04:20;20.80;99.90
3752;DHT22;50827;47.014;7.652;2023-08-31T13:06:47;20.70;99.90
3752;DHT22;50827;47.014;7.652;2023-08-31T13:09:13;20.70;99.90
3752;DHT22;50827;47.014;7.652;2023-08-31T13:11:40;20.70;99.90
3752;DHT22;50827;47.014;7.652;2023-08-31T13:14:07;20.70;99.90
3752;DHT22;50827;47.014;7.652;2023-08-31T13:16:34;20.80;99.90
3752;DHT22;50827;47.014;7.652;2023-08-31T13:19:03;20.80;99.90
3752;DHT22;50827;47.014;7.652;2023-08-31T13:21:30;20.90;99.90
3752;DHT22;50827;47.014;7.652;2023-08-31T13:23:57;20.90;99.90
3752;DHT22;50827;47.014;7.652;2023-08-31T13:26:23;20.90;99.90
3752;DHT22;50827;47.014;7.652;2023-08-31T13:28:50;21.00;99.90
3752;DHT22;50827;47.014;7.652;2023-08-31T13:31:17;21.00;99.90
3752;DHT22;50827;47.014;7.652;2023-08-31T13:33:44;21.10;99.90
3752;DHT22;50827;47.014;7.652;2023-08-31T13:36:10;21.10;99.90
3752;DHT22;50827;47.014;7.652;2023-08-31T13:38:38;21.10;99.90
3752;DHT22;50827;47.014;7.652;2023-08-31T13:41:05;21.10;99.90
3752;DHT22;50827;47.014;7.652;2023-08-31T13:43:32;21.20;99.90
3752;DHT22;50827;47.014;7.652;2023-08-31T13:45:58;21.20;99.90
3752;DHT22;50827;47.014;7.652;2023-08-31T13:48:25;21.20;99.90
3752;DHT22;50827;47.014;7.652;2023-08-31T13:50:52;21.20;99.90
3752;DHT22;50827;47.014;7.652;2023-08-31T13:53:19;21.30;99.90
3752;DHT22;50827;47.014;7.652;2023-08-31T13:55:45;21.30;99.90
3752;DHT22;50827;47.014;7.652;2023-08-31T13:58:12;21.20;99.90
3752;DHT22;50827;47.014;7.652;2023-08-31T14:00:40;21.20;99.90
3752;DHT22;50827;47.014;7.652;2023-08-31T14:03:06;21.30;99.90
3752;DHT22;50827;47.014;7.652;2023-08-31T14:05:33;21.20;99.90
3752;DHT22;50827;47.014;7.652;2023-08-31T14:08:00;21.20;99.90
3752;DHT22;50827;47.014;7.652;2023-08-31T14:10:31;21.20;99.90
3752;DHT22;50827;47.014;7.652;2023-08-31T14:12:59;21.20;99.90
3752;DHT22;50827;47.014;7.652;2023-08-31T14:15:26;21.10;99.90
3752;DHT22;50827;47.014;7.652;2023-08-31T14:17:53;21.10;99.90
3752;DHT22;50827;47.014;7.652;2023-08-31T14:20:20;21.10;99.90
3752;DHT22;50827;47.014;7.652;2023-08-31T14:22:47;21.10;99.90
3752;DHT22;50827;47.014;7.652;2023-08-31T14:25:14;21.10;99.90
3752;DHT22;50827;47.014;7.652;2023-08-31T14:27:41;21.10;99.90
3752;DHT22;50827;47.014;7.652;2023-08-31T14:30:09;21.10;99.90
3752;DHT22;50827;47.014;7.652;2023-08-31T14:32:35;21.10;99.90
3752;DHT22;50827;47.014;7.652;2023-08-31T14:35:02;21.30;99.90
3752;DHT22;50827;47.014;7.652;2023-08-31T14:37:31;21.30;99.90
3752;DHT22;50827;47.014;7.652;2023-08-31T14:39:57;21.30;99.90
3752;DHT22;50827;47.014;7.652;2023-08-31T14:42:24;21.40;99.90
3752;DHT22;50827;47.014;7.652;2023-08-31T14:44:51;21.50;99.90
3752;DHT22;50827;47.014;7.652;2023-08-31T14:47:18;21.60;99.90
3752;DHT22;50827;47.014;7.652;2023-08-31T14:49:44;21.70;99.90
3752;DHT22;50827;47.014;7.652;2023-08-31T14:52:11;21.60;99.90
3752;DHT22;50827;47.014;7.652;2023-08-31T14:54:38;21.60;99.90
3752;DHT22;50827;47.014;7.652;2023-08-31T14:57:05;21.60;99.90
3752;DHT22;50827;47.014;7.652;2023-08-31T14:59:32;21.60;99.90
3752;DHT22;50827;47.014;7.652;2023-08-31T15:01:59;21.70;99.90
3752;DHT22;50827;47.014;7.652;2023-08-31T15:04:32;21.80;99.90
3752;DHT22;50827;47.014;7.652;2023-08-31T15:06:59;21.70;99.90
3752;DHT22;50827;47.014;7.652;2023-08-31T15:09:26;21.70;99.90
3752;DHT22;50827;47.014;7.652;2023-08-31T15:11:53;21.60;99.90
3752;DHT22;50827;47.014;7.652;2023-08-31T15:14:20;21.60;99.90
3752;DHT22;50827;47.014;7.652;2023-08-31T15:16:47;21.50;99.90
3752;DHT22;50827;47.014;7.652;2023-08-31T15:19:13;21.60;99.90
3752;DHT22;50827;47.014;7.652;2023-08-31T15:21:40;21.50;99.90
3752;DHT22;50827;47.014;7.652;2023-08-31T15:24:07;21.60;99.90
3752;DHT22;50827;47.014;7.652;2023-08-31T15:26:33;21.60;99.90
3752;DHT22;50827;47.014;7.652;2023-08-31T15:29:00;21.60;99.90
3752;DHT22;50827;47.014;7.652;2023-08-31T15:31:28;21.60;99.90
3752;DHT22;50827;47.014;7.652;2023-08-31T15:33:55;21.50;99.90
3752;DHT22;50827;47.014;7.652;2023-08-31T15:36:22;21.40;99.90
3752;DHT22;50827;47.014;7.652;2023-08-31T15:38:49;21.40;99.90
3752;DHT22;50827;47.014;7.652;2023-08-31T15:41:15;21.40;99.90
3752;DHT22;50827;47.014;7.652;2023-08-31T15:43:42;21.40;99.90
3752;DHT22;50827;47.014;7.652;2023-08-31T15:46:10;21.30;99.90
3752;DHT22;50827;47.014;7.652;2023-08-31T15:48:36;21.30;99.90
3752;DHT22;50827;47.014;7.652;2023-08-31T15:51:04;21.30;99.90
3752;DHT22;50827;47.014;7.652;2023-08-31T15:53:30;21.30;99.90
3752;DHT22;50827;47.014;7.652;2023-08-31T15:55:58;21.30;99.90
3752;DHT22;50827;47.014;7.652;2023-08-31T15:58:24;21.30;99.90
3752;DHT22;50827;47.014;7.652;2023-08-31T16:00:53;21.30;99.90
3752;DHT22;50827;47.014;7.652;2023-08-31T16:03:31;21.30;99.90
3752;DHT22;50827;47.014;7.652;2023-08-31T16:05:59;21.40;99.90
3752;DHT22;50827;47.014;7.652;2023-08-31T16:08:27;21.30;99.90
3752;DHT22;50827;47.014;7.652;2023-08-31T16:10:54;21.30;99.90
3752;DHT22;50827;47.014;7.652;2023-08-31T16:13:21;21.30;99.90